sensor_id;sensor_type;location;lat;lon;timestamp;pressure;altitude;pressure_sealevel;temperature;humidity
34243;BME280;20504;43.214;27.920;2023-06-19T00:01:58;99184.69;;;23.86;100.00
34243;BME280;20504;43.214;27.920;2023-06-19T00:04:30;99170.56;;;23.77;100.00
34243;BME280;20504;43.214;27.920;2023-06-19T00:07:10;99206.56;;;23.78;100.00
34243;BME280;20504;43.214;27.920;2023-06-19T00:09:41;99223.13;;;23.50;100.00
34243;BME280;20504;43.214;27.920;2023-06-19T00:12:59;99242.06;;;23.63;100.00
34243;BME280;20504;43.214;27.920;2023-06-19T00:15:27;99274.09;;;23.66;100.00
34243;BME280;20504;43.214;27.920;2023-06-19T00:17:57;99280.13;;;23.68;100.00
34243;BME280;20504;43.214;27.920;2023-06-19T00:23:38;99359.16;;;23.90;100.00
34243;BME280;20504;43.214;27.920;2023-06-19T00:26:06;99331.91;;;23.85;100.00
34243;BME280;20504;43.214;27.920;2023-06-19T00:28:33;99442.28;;;23.90;100.00
34243;BME280;20504;43.214;27.920;2023-06-19T00:31:09;99283.53;;;23.04;100.00
34243;BME280;20504;43.214;27.920;2023-06-19T00:33:40;99332.22;;;23.17;100.00
34243;BME280;20504;43.214;27.920;2023-06-19T00:36:12;99402.75;;;23.49;100.00
34243;BME280;20504;43.214;27.920;2023-06-19T00:38:46;99407.09;;;23.50;100.00
34243;BME280;20504;43.214;27.920;2023-06-19T00:41:16;99451.66;;;23.74;100.00
34243;BME280;20504;43.214;27.920;2023-06-19T00:46:41;99481.03;;;23.83;100.00
34243;BME280;20504;43.214;27.920;2023-06-19T00:49:13;99471.22;;;23.56;100.00
34243;BME280;20504;43.214;27.920;2023-06-19T00:51:47;99509.75;;;23.78;100.00
34243;BME280;20504;43.214;27.920;2023-06-19T00:54:56;99487.06;;;23.85;100.00
34243;BME280;20504;43.214;27.920;2023-06-19T01:00:12;99620.97;;;23.96;100.00
34243;BME280;20504;43.214;27.920;2023-06-19T01:02:49;99512.06;;;23.68;100.00
34243;BME280;20504;43.214;27.920;2023-06-19T01:05:15;99485.97;;;23.40;100.00
34243;BME280;20504;43.214;27.920;2023-06-19T01:08:22;99561.22;;;23.84;100.00
34243;BME280;20504;43.214;27.920;2023-06-19T01:14:00;99572.44;;;23.95;100.00
34243;BME280;20504;43.214;27.920;2023-06-19T01:16:54;99587.66;;;23.89;100.00
34243;BME280;20504;43.214;27.920;2023-06-19T01:19:24;99560.34;;;23.77;100.00
34243;BME280;20504;43.214;27.920;2023-06-19T01:22:21;99598.28;;;24.04;100.00
34243;BME280;20504;43.214;27.920;2023-06-19T01:25:17;99547.25;;;23.88;100.00
34243;BME280;20504;43.214;27.920;2023-06-19T01:27:47;99563.28;;;24.22;100.00
34243;BME280;20504;43.214;27.920;2023-06-19T01:30:16;99494.34;;;23.92;100.00
34243;BME280;20504;43.214;27.920;2023-06-19T01:33:28;99552.22;;;24.30;100.00
34243;BME280;20504;43.214;27.920;2023-06-19T01:36:36;99448.94;;;23.61;100.00
34243;BME280;20504;43.214;27.920;2023-06-19T01:39:10;99550.34;;;23.98;100.00
34243;BME280;20504;43.214;27.920;2023-06-19T01:41:40;99516.22;;;23.83;100.00
34243;BME280;20504;43.214;27.920;2023-06-19T01:52:23;99532.44;;;24.23;100.00
34243;BME280;20504;43.214;27.920;2023-06-19T01:55:40;99505.16;;;23.92;100.00
34243;BME280;20504;43.214;27.920;2023-06-19T01:58:13;99531.59;;;24.16;100.00
34243;BME280;20504;43.214;27.920;2023-06-19T02:04:13;99528.69;;;24.37;100.00
34243;BME280;20504;43.214;27.920;2023-06-19T02:06:45;99481.63;;;23.92;100.00
34243;BME280;20504;43.214;27.920;2023-06-19T02:11:55;99450.81;;;23.93;100.00
34243;BME280;20504;43.214;27.920;2023-06-19T02:14:40;99476.44;;;23.84;100.00
34243;BME280;20504;43.214;27.920;2023-06-19T02:23:09;99511.59;;;24.30;100.00
34243;BME280;20504;43.214;27.920;2023-06-19T02:26:03;99527.00;;;24.16;100.00
34243;BME280;20504;43.214;27.920;2023-06-19T02:28:45;99533.91;;;24.06;100.00
34243;BME280;20504;43.214;27.920;2023-06-19T02:31:15;99505.75;;;24.13;100.00
34243;BME280;20504;43.214;27.920;2023-06-19T02:33:43;99489.53;;;23.94;100.00
34243;BME280;20504;43.214;27.920;2023-06-19T02:36:17;99545.78;;;24.05;100.00
34243;BME280;20504;43.214;27.920;2023-06-19T02:39:49;99541.59;;;24.22;100.00
34243;BME280;20504;43.214;27.920;2023-06-19T02:42:39;99625.16;;;24.52;100.00
34243;BME280;20504;43.214;27.920;2023-06-19T02:45:27;99438.72;;;24.02;100.00
34243;BME280;20504;43.214;27.920;2023-06-19T02:48:15;99514.50;;;24.22;100.00
34243;BME280;20504;43.214;27.920;2023-06-19T02:56:50;99540.56;;;24.36;100.00
34243;BME280;20504;43.214;27.920;2023-06-19T03:09:15;99485.72;;;24.34;100.00
34243;BME280;20504;43.214;27.920;2023-06-19T03:12:28;99539.75;;;24.36;100.00
34243;BME280;20504;43.214;27.920;2023-06-19T03:15:07;99582.22;;;24.55;100.00
34243;BME280;20504;43.214;27.920;2023-06-19T03:23:23;99485.75;;;24.21;100.00
34243;BME280;20504;43.214;27.920;2023-06-19T03:25:57;99493.25;;;24.19;100.00
34243;BME280;20504;43.214;27.920;2023-06-19T03:28:36;99513.25;;;24.11;100.00
34243;BME280;20504;43.214;27.920;2023-06-19T03:31:55;99563.88;;;24.44;100.00
34243;BME280;20504;43.214;27.920;2023-06-19T03:35:01;99539.09;;;24.07;100.00
34243;BME280;20504;43.214;27.920;2023-06-19T03:41:37;99478.75;;;23.80;100.00
34243;BME280;20504;43.214;27.920;2023-06-19T04:29:11;99612.84;;;24.62;100.00
34243;BME280;20504;43.214;27.920;2023-06-19T04:32:05;99455.81;;;23.76;100.00
34243;BME280;20504;43.214;27.920;2023-06-19T04:34:45;99505.56;;;23.95;100.00
34243;BME280;20504;43.214;27.920;2023-06-19T04:37:51;99546.19;;;24.41;100.00
34243;BME280;20504;43.214;27.920;2023-06-19T04:40:40;99488.69;;;24.13;100.00
34243;BME280;20504;43.214;27.920;2023-06-19T04:56:47;99438.75;;;23.76;100.00
34243;BME280;20504;43.214;27.920;2023-06-19T05:00:07;99425.00;;;23.77;100.00
34243;BME280;20504;43.214;27.920;2023-06-19T05:02:59;99470.81;;;23.85;100.00
34243;BME280;20504;43.214;27.920;2023-06-19T05:06:05;99476.38;;;24.24;100.00
34243;BME280;20504;43.214;27.920;2023-06-19T05:09:08;99408.22;;;24.27;100.00
34243;BME280;20504;43.214;27.920;2023-06-19T05:15:09;99402.97;;;24.45;100.00
34243;BME280;20504;43.214;27.920;2023-06-19T05:17:49;99390.03;;;24.47;100.00
34243;BME280;20504;43.214;27.920;2023-06-19T05:20:15;99253.66;;;24.15;100.00
34243;BME280;20504;43.214;27.920;2023-06-19T05:22:41;99236.94;;;24.25;100.00
34243;BME280;20504;43.214;27.920;2023-06-19T05:25:10;99272.50;;;24.41;100.00
34243;BME280;20504;43.214;27.920;2023-06-19T05:27:35;99223.44;;;24.50;100.00
34243;BME280;20504;43.214;27.920;2023-06-19T05:30:01;99232.63;;;24.49;100.00
34243;BME280;20504;43.214;27.920;2023-06-19T05:32:33;99119.81;;;24.29;100.00
34243;BME280;20504;43.214;27.920;2023-06-19T05:35:01;99156.81;;;24.67;100.00
34243;BME280;20504;43.214;27.920;2023-06-19T05:37:28;99092.66;;;24.61;100.00
34243;BME280;20504;43.214;27.920;2023-06-19T05:40:16;99278.06;;;25.28;100.00
34243;BME280;20504;43.214;27.920;2023-06-19T05:42:59;99062.84;;;24.61;100.00
34243;BME280;20504;43.214;27.920;2023-06-19T05:46:03;99051.69;;;24.69;100.00
34243;BME280;20504;43.214;27.920;2023-06-19T05:52:03;99195.91;;;25.39;100.00
34243;BME280;20504;43.214;27.920;2023-06-19T05:55:05;99281.50;;;25.78;100.00
34243;BME280;20504;43.214;27.920;2023-06-19T05:57:38;99249.13;;;25.58;100.00
34243;BME280;20504;43.214;27.920;2023-06-19T06:00:55;99506.75;;;26.16;100.00
34243;BME280;20504;43.214;27.920;2023-06-19T06:04:06;99406.97;;;25.87;100.00
34243;BME280;20504;43.214;27.920;2023-06-19T06:11:56;99466.34;;;26.02;100.00
34243;BME280;20504;43.214;27.920;2023-06-19T06:14:57;99494.81;;;26.17;100.00
34243;BME280;20504;43.214;27.920;2023-06-19T06:18:11;99552.50;;;25.94;100.00
34243;BME280;20504;43.214;27.920;2023-06-19T06:28:36;99870.06;;;26.85;100.00
34243;BME280;20504;43.214;27.920;2023-06-19T06:31:11;99878.69;;;26.76;100.00
34243;BME280;20504;43.214;27.920;2023-06-19T06:33:40;99906.63;;;26.65;100.00
34243;BME280;20504;43.214;27.920;2023-06-19T06:41:58;100167.50;;;27.31;100.00
34243;BME280;20504;43.214;27.920;2023-06-19T06:44:32;100263.25;;;27.21;100.00
34243;BME280;20504;43.214;27.920;2023-06-19T06:50:29;100597.78;;;27.84;100.00
34243;BME280;20504;43.214;27.920;2023-06-19T06:53:14;100670.22;;;27.45;100.00
34243;BME280;20504;43.214;27.920;2023-06-19T07:00:48;101108.53;;;28.24;100.00
34243;BME280;20504;43.214;27.920;2023-06-19T07:03:16;101315.03;;;28.51;100.00
34243;BME280;20504;43.214;27.920;2023-06-19T07:05:42;101627.38;;;28.85;100.00
34243;BME280;20504;43.214;27.920;2023-06-19T07:08:07;101629.84;;;28.65;100.00
34243;BME280;20504;43.214;27.920;2023-06-19T07:10:33;101528.13;;;28.56;100.00
34243;BME280;20504;43.214;27.920;2023-06-19T07:12:59;101366.03;;;28.29;100.00
34243;BME280;20504;43.214;27.920;2023-06-19T07:15:25;101434.44;;;28.28;100.00
34243;BME280;20504;43.214;27.920;2023-06-19T07:17:52;101670.41;;;28.68;100.00
34243;BME280;20504;43.214;27.920;2023-06-19T07:20:18;101756.78;;;28.61;100.00
34243;BME280;20504;43.214;27.920;2023-06-19T07:22:44;101618.53;;;28.24;100.00
34243;BME280;20504;43.214;27.920;2023-06-19T07:25:37;101785.03;;;28.53;100.00
34243;BME280;20504;43.214;27.920;2023-06-19T07:28:19;101782.34;;;28.08;100.00
34243;BME280;20504;43.214;27.920;2023-06-19T07:30:52;101838.16;;;28.28;100.00
34243;BME280;20504;43.214;27.920;2023-06-19T07:33:50;102062.00;;;28.57;100.00
34243;BME280;20504;43.214;27.920;2023-06-19T07:37:19;102051.44;;;28.54;100.00
34243;BME280;20504;43.214;27.920;2023-06-19T07:40:18;102041.19;;;28.56;100.00
34243;BME280;20504;43.214;27.920;2023-06-19T07:48:53;102843.16;;;29.71;100.00
34243;BME280;20504;43.214;27.920;2023-06-19T08:41:37;102201.97;;;28.82;100.00
34243;BME280;20504;43.214;27.920;2023-06-19T08:44:05;101962.41;;;28.53;100.00
34243;BME280;20504;43.214;27.920;2023-06-19T08:46:36;101918.22;;;28.35;100.00
34243;BME280;20504;43.214;27.920;2023-06-19T08:49:24;101913.97;;;28.55;100.00
34243;BME280;20504;43.214;27.920;2023-06-19T08:51:50;101978.66;;;28.70;100.00
34243;BME280;20504;43.214;27.920;2023-06-19T08:58:23;102206.22;;;28.85;100.00
34243;BME280;20504;43.214;27.920;2023-06-19T09:01:05;101974.06;;;28.47;100.00
34243;BME280;20504;43.214;27.920;2023-06-19T09:03:43;101928.72;;;28.46;100.00
34243;BME280;20504;43.214;27.920;2023-06-19T09:06:31;101825.38;;;27.97;100.00
34243;BME280;20504;43.214;27.920;2023-06-19T09:09:01;101720.81;;;27.90;100.00
34243;BME280;20504;43.214;27.920;2023-06-19T09:11:32;101873.72;;;28.03;100.00
34243;BME280;20504;43.214;27.920;2023-06-19T09:14:00;101946.25;;;28.21;100.00
34243;BME280;20504;43.214;27.920;2023-06-19T09:16:53;102203.63;;;28.52;100.00
34243;BME280;20504;43.214;27.920;2023-06-19T09:19:25;102273.59;;;28.37;100.00
34243;BME280;20504;43.214;27.920;2023-06-19T09:25:07;102391.94;;;28.36;100.00
34243;BME280;20504;43.214;27.920;2023-06-19T09:27:38;102455.06;;;28.65;100.00
34243;BME280;20504;43.214;27.920;2023-06-19T09:30:15;102572.78;;;28.71;100.00
34243;BME280;20504;43.214;27.920;2023-06-19T09:48:33;103448.72;;;29.78;100.00
34243;BME280;20504;43.214;27.920;2023-06-19T09:51:40;103342.78;;;29.89;100.00
34243;BME280;20504;43.214;27.920;2023-06-19T09:57:03;103500.81;;;29.59;100.00
34243;BME280;20504;43.214;27.920;2023-06-19T09:59:35;103661.00;;;29.62;100.00
34243;BME280;20504;43.214;27.920;2023-06-19T10:02:44;103438.41;;;29.45;100.00
34243;BME280;20504;43.214;27.920;2023-06-19T10:05:16;103621.78;;;29.71;100.00
34243;BME280;20504;43.214;27.920;2023-06-19T10:07:55;103622.66;;;29.71;100.00
34243;BME280;20504;43.214;27.920;2023-06-19T10:13:51;103615.69;;;29.59;100.00
34243;BME280;20504;43.214;27.920;2023-06-19T10:16:21;103849.00;;;29.79;100.00
34243;BME280;20504;43.214;27.920;2023-06-19T10:18:53;104053.97;;;30.21;100.00
34243;BME280;20504;43.214;27.920;2023-06-19T10:21:43;104292.88;;;30.63;100.00
34243;BME280;20504;43.214;27.920;2023-06-19T10:24:27;104479.75;;;30.87;100.00
34243;BME280;20504;43.214;27.920;2023-06-19T10:27:05;104823.78;;;31.55;100.00
34243;BME280;20504;43.214;27.920;2023-06-19T10:29:42;105012.97;;;32.00;100.00
34243;BME280;20504;43.214;27.920;2023-06-19T10:32:30;105269.06;;;32.24;100.00
34243;BME280;20504;43.214;27.920;2023-06-19T10:35:21;105450.69;;;32.33;100.00
34243;BME280;20504;43.214;27.920;2023-06-19T10:37:47;105769.63;;;32.77;100.00
34243;BME280;20504;43.214;27.920;2023-06-19T10:40:13;106321.63;;;33.77;100.00
34243;BME280;20504;43.214;27.920;2023-06-19T10:42:42;106535.44;;;33.92;100.00
34243;BME280;20504;43.214;27.920;2023-06-19T10:45:10;106666.38;;;33.98;100.00
34243;BME280;20504;43.214;27.920;2023-06-19T10:47:47;107105.19;;;34.46;100.00
34243;BME280;20504;43.214;27.920;2023-06-19T10:50:14;107188.03;;;34.44;100.00
34243;BME280;20504;43.214;27.920;2023-06-19T10:52:44;107176.50;;;34.52;100.00
34243;BME280;20504;43.214;27.920;2023-06-19T10:55:11;106879.06;;;34.05;100.00
34243;BME280;20504;43.214;27.920;2023-06-19T10:57:45;107136.38;;;34.32;100.00
34243;BME280;20504;43.214;27.920;2023-06-19T11:00:21;107611.16;;;35.03;100.00
34243;BME280;20504;43.214;27.920;2023-06-19T11:02:58;107658.63;;;35.10;100.00
34243;BME280;20504;43.214;27.920;2023-06-19T11:05:25;107577.78;;;34.92;100.00
34243;BME280;20504;43.214;27.920;2023-06-19T11:08:01;107520.22;;;34.86;100.00
34243;BME280;20504;43.214;27.920;2023-06-19T11:10:32;107544.84;;;34.89;100.00
34243;BME280;20504;43.214;27.920;2023-06-19T11:12:59;107822.81;;;35.36;100.00
34243;BME280;20504;43.214;27.920;2023-06-19T11:15:33;108104.47;;;36.03;100.00
34243;BME280;20504;43.214;27.920;2023-06-19T11:18:05;107807.47;;;35.46;100.00
34243;BME280;20504;43.214;27.920;2023-06-19T11:20:42;107655.59;;;35.14;100.00
34243;BME280;20504;43.214;27.920;2023-06-19T11:23:09;107719.94;;;35.31;100.00
34243;BME280;20504;43.214;27.920;2023-06-19T11:25:38;107753.28;;;35.28;100.00
34243;BME280;20504;43.214;27.920;2023-06-19T11:28:39;107530.59;;;34.97;100.00
34243;BME280;20504;43.214;27.920;2023-06-19T11:31:04;107205.63;;;34.27;100.00
34243;BME280;20504;43.214;27.920;2023-06-19T11:33:30;107461.00;;;34.76;100.00
34243;BME280;20504;43.214;27.920;2023-06-19T11:36:00;107734.13;;;35.40;100.00
34243;BME280;20504;43.214;27.920;2023-06-19T11:38:27;107629.28;;;35.23;100.00
34243;BME280;20504;43.214;27.920;2023-06-19T11:44:05;107370.34;;;34.84;100.00
34243;BME280;20504;43.214;27.920;2023-06-19T11:46:32;107396.47;;;34.78;100.00
34243;BME280;20504;43.214;27.920;2023-06-19T11:49:16;107495.38;;;34.86;100.00
34243;BME280;20504;43.214;27.920;2023-06-19T11:51:43;107115.13;;;34.20;100.00
34243;BME280;20504;43.214;27.920;2023-06-19T11:54:13;107562.69;;;35.28;100.00
34243;BME280;20504;43.214;27.920;2023-06-19T11:56:51;107518.19;;;35.04;100.00
34243;BME280;20504;43.214;27.920;2023-06-19T11:59:16;107322.13;;;34.61;100.00
34243;BME280;20504;43.214;27.920;2023-06-19T12:01:44;107193.63;;;34.28;100.00
34243;BME280;20504;43.214;27.920;2023-06-19T12:04:11;107070.06;;;34.07;100.00
34243;BME280;20504;43.214;27.920;2023-06-19T12:06:38;107209.59;;;34.66;100.00
34243;BME280;20504;43.214;27.920;2023-06-19T12:09:06;107229.41;;;34.44;100.00
34243;BME280;20504;43.214;27.920;2023-06-19T12:11:33;107314.03;;;34.72;100.00
34243;BME280;20504;43.214;27.920;2023-06-19T12:13:58;107316.63;;;34.61;100.00
34243;BME280;20504;43.214;27.920;2023-06-19T12:16:27;107196.09;;;34.61;100.00
34243;BME280;20504;43.214;27.920;2023-06-19T12:18:54;108142.31;;;36.03;100.00
34243;BME280;20504;43.214;27.920;2023-06-19T12:21:19;109170.03;;;37.74;100.00
34243;BME280;20504;43.214;27.920;2023-06-19T12:23:45;108693.38;;;36.82;100.00
34243;BME280;20504;43.214;27.920;2023-06-19T12:26:34;107631.22;;;35.37;100.00
34243;BME280;20504;43.214;27.920;2023-06-19T12:29:04;107521.66;;;35.21;100.00
34243;BME280;20504;43.214;27.920;2023-06-19T12:31:31;107186.75;;;34.50;100.00
34243;BME280;20504;43.214;27.920;2023-06-19T12:33:59;107362.09;;;34.98;100.00
34243;BME280;20504;43.214;27.920;2023-06-19T12:36:28;107956.59;;;35.95;100.00
34243;BME280;20504;43.214;27.920;2023-06-19T12:39:00;108383.16;;;36.66;100.00
34243;BME280;20504;43.214;27.920;2023-06-19T12:41:26;108301.97;;;36.50;100.00
34243;BME280;20504;43.214;27.920;2023-06-19T12:43:52;107791.25;;;35.40;100.00
34243;BME280;20504;43.214;27.920;2023-06-19T12:46:19;107305.44;;;34.77;100.00
34243;BME280;20504;43.214;27.920;2023-06-19T12:48:47;107910.38;;;35.81;100.00
34243;BME280;20504;43.214;27.920;2023-06-19T12:51:17;109199.69;;;37.91;100.00
34243;BME280;20504;43.214;27.920;2023-06-19T12:53:44;110010.22;;;39.44;100.00
34243;BME280;20504;43.214;27.920;2023-06-19T12:56:09;110427.25;;;40.42;100.00
34243;BME280;20504;43.214;27.920;2023-06-19T12:58:35;109797.34;;;39.35;100.00
34243;BME280;20504;43.214;27.920;2023-06-19T13:01:00;110175.00;;;40.54;100.00
34243;BME280;20504;43.214;27.920;2023-06-19T13:03:44;109868.31;;;40.21;100.00
34243;BME280;20504;43.214;27.920;2023-06-19T13:06:13;110313.28;;;41.16;100.00
34243;BME280;20504;43.214;27.920;2023-06-19T13:09:00;110525.94;;;41.62;100.00
34243;BME280;20504;43.214;27.920;2023-06-19T13:11:26;110807.06;;;42.24;100.00
34243;BME280;20504;43.214;27.920;2023-06-19T13:13:51;111048.78;;;42.76;100.00
34243;BME280;20504;43.214;27.920;2023-06-19T13:16:17;111177.81;;;43.11;100.00
34243;BME280;20504;43.214;27.920;2023-06-19T13:18:43;111088.88;;;42.99;100.00
34243;BME280;20504;43.214;27.920;2023-06-19T13:21:09;111158.16;;;43.12;100.00
34243;BME280;20504;43.214;27.920;2023-06-19T13:23:34;111443.41;;;43.62;100.00
34243;BME280;20504;43.214;27.920;2023-06-19T13:26:00;111542.00;;;44.16;100.00
34243;BME280;20504;43.214;27.920;2023-06-19T13:28:25;111655.44;;;44.51;100.00
34243;BME280;20504;43.214;27.920;2023-06-19T13:30:51;111431.97;;;44.10;100.00
34243;BME280;20504;43.214;27.920;2023-06-19T13:33:16;111429.03;;;44.14;100.00
34243;BME280;20504;43.214;27.920;2023-06-19T13:35:42;111355.84;;;43.99;100.00
34243;BME280;20504;43.214;27.920;2023-06-19T13:38:08;111487.91;;;44.14;100.00
34243;BME280;20504;43.214;27.920;2023-06-19T13:40:34;111715.56;;;44.65;100.00
34243;BME280;20504;43.214;27.920;2023-06-19T13:43:00;111729.28;;;44.72;100.00
34243;BME280;20504;43.214;27.920;2023-06-19T13:45:27;111219.72;;;43.75;100.00
34243;BME280;20504;43.214;27.920;2023-06-19T13:47:53;110572.13;;;42.46;100.00
34243;BME280;20504;43.214;27.920;2023-06-19T13:50:18;109722.31;;;40.94;100.00
34243;BME280;20504;43.214;27.920;2023-06-19T13:53:09;108549.53;;;38.66;100.00
34243;BME280;20504;43.214;27.920;2023-06-19T13:56:30;108986.44;;;39.63;100.00
34243;BME280;20504;43.214;27.920;2023-06-19T13:58:58;109341.69;;;40.10;100.00
34243;BME280;20504;43.214;27.920;2023-06-19T14:01:30;110035.06;;;41.20;100.00
34243;BME280;20504;43.214;27.920;2023-06-19T14:03:56;110515.91;;;42.16;100.00
34243;BME280;20504;43.214;27.920;2023-06-19T14:06:39;110691.16;;;42.51;100.00
34243;BME280;20504;43.214;27.920;2023-06-19T14:09:35;109081.06;;;39.77;100.00
34243;BME280;20504;43.214;27.920;2023-06-19T14:12:07;107822.53;;;37.28;100.00
34243;BME280;20504;43.214;27.920;2023-06-19T14:14:33;107131.56;;;35.58;100.00
34243;BME280;20504;43.214;27.920;2023-06-19T14:16:59;106697.16;;;34.81;100.00
34243;BME280;20504;43.214;27.920;2023-06-19T14:19:26;107275.03;;;36.00;100.00
34243;BME280;20504;43.214;27.920;2023-06-19T14:21:55;107599.19;;;36.47;100.00
34243;BME280;20504;43.214;27.920;2023-06-19T14:24:21;107833.22;;;36.79;100.00
34243;BME280;20504;43.214;27.920;2023-06-19T14:26:48;106907.09;;;35.29;100.00
34243;BME280;20504;43.214;27.920;2023-06-19T14:29:18;106404.69;;;34.20;100.00
34243;BME280;20504;43.214;27.920;2023-06-19T14:31:50;105828.56;;;33.32;100.00
34243;BME280;20504;43.214;27.920;2023-06-19T14:34:19;106053.09;;;33.94;100.00
34243;BME280;20504;43.214;27.920;2023-06-19T14:36:46;107683.41;;;36.28;100.00
34243;BME280;20504;43.214;27.920;2023-06-19T14:39:12;108692.72;;;37.62;100.00
34243;BME280;20504;43.214;27.920;2023-06-19T14:41:38;108339.94;;;37.11;100.00
34243;BME280;20504;43.214;27.920;2023-06-19T14:44:04;107110.59;;;35.28;100.00
34243;BME280;20504;43.214;27.920;2023-06-19T14:46:43;106205.38;;;33.85;100.00
34243;BME280;20504;43.214;27.920;2023-06-19T14:49:16;105599.97;;;33.23;100.00
34243;BME280;20504;43.214;27.920;2023-06-19T14:51:43;105444.91;;;32.80;100.00
34243;BME280;20504;43.214;27.920;2023-06-19T14:54:17;106057.25;;;34.11;100.00
34243;BME280;20504;43.214;27.920;2023-06-19T14:56:44;106387.47;;;34.29;100.00
34243;BME280;20504;43.214;27.920;2023-06-19T14:59:14;105952.00;;;33.72;100.00
34243;BME280;20504;43.214;27.920;2023-06-19T15:01:45;105330.13;;;32.71;100.00
34243;BME280;20504;43.214;27.920;2023-06-19T15:04:17;105063.00;;;32.36;100.00
34243;BME280;20504;43.214;27.920;2023-06-19T15:06:47;105138.38;;;32.43;100.00
34243;BME280;20504;43.214;27.920;2023-06-19T15:14:38;105079.19;;;32.90;100.00
34243;BME280;20504;43.214;27.920;2023-06-19T15:17:07;106223.53;;;34.69;100.00
34243;BME280;20504;43.214;27.920;2023-06-19T15:19:43;106148.03;;;34.36;100.00
34243;BME280;20504;43.214;27.920;2023-06-19T15:22:09;105889.66;;;33.93;100.00
34243;BME280;20504;43.214;27.920;2023-06-19T15:24:42;105513.50;;;33.36;100.00
34243;BME280;20504;43.214;27.920;2023-06-19T15:27:32;104971.16;;;32.78;100.00
34243;BME280;20504;43.214;27.920;2023-06-19T15:30:01;105209.81;;;32.96;100.00
34243;BME280;20504;43.214;27.920;2023-06-19T15:32:27;105690.88;;;33.66;100.00
34243;BME280;20504;43.214;27.920;2023-06-19T15:34:55;106645.75;;;35.28;100.00
34243;BME280;20504;43.214;27.920;2023-06-19T15:37:20;107534.78;;;36.30;100.00
34243;BME280;20504;43.214;27.920;2023-06-19T15:39:47;107435.00;;;36.06;100.00
34243;BME280;20504;43.214;27.920;2023-06-19T15:42:15;107675.78;;;36.46;100.00
34243;BME280;20504;43.214;27.920;2023-06-19T15:44:41;107931.59;;;36.70;100.00
34243;BME280;20504;43.214;27.920;2023-06-19T15:47:08;106581.59;;;34.14;100.00
34243;BME280;20504;43.214;27.920;2023-06-19T15:49:33;106154.25;;;33.57;100.00
34243;BME280;20504;43.214;27.920;2023-06-19T15:52:02;105736.16;;;32.83;100.00
34243;BME280;20504;43.214;27.920;2023-06-19T15:54:27;105452.44;;;32.56;100.00
34243;BME280;20504;43.214;27.920;2023-06-19T15:56:58;104795.69;;;31.63;100.00
34243;BME280;20504;43.214;27.920;2023-06-19T15:59:39;104329.06;;;31.26;100.00
34243;BME280;20504;43.214;27.920;2023-06-19T16:02:07;104424.22;;;31.83;100.00
34243;BME280;20504;43.214;27.920;2023-06-19T16:05:01;104293.81;;;31.31;100.00
34243;BME280;20504;43.214;27.920;2023-06-19T16:07:45;104094.84;;;31.46;100.00
34243;BME280;20504;43.214;27.920;2023-06-19T16:10:13;103748.38;;;30.92;100.00
34243;BME280;20504;43.214;27.920;2023-06-19T16:12:43;103475.56;;;30.54;100.00
34243;BME280;20504;43.214;27.920;2023-06-19T16:15:41;103368.94;;;30.53;100.00
34243;BME280;20504;43.214;27.920;2023-06-19T16:19:05;102818.88;;;30.01;100.00
34243;BME280;20504;43.214;27.920;2023-06-19T16:22:21;102558.31;;;29.91;100.00
34243;BME280;20504;43.214;27.920;2023-06-19T16:25:30;102397.53;;;29.47;100.00
34243;BME280;20504;43.214;27.920;2023-06-19T16:32:16;101870.94;;;28.95;100.00
34243;BME280;20504;43.214;27.920;2023-06-19T16:38:21;101665.28;;;28.94;100.00
34243;BME280;20504;43.214;27.920;2023-06-19T16:49:04;101256.78;;;28.65;100.00
34243;BME280;20504;43.214;27.920;2023-06-19T16:51:30;101309.53;;;29.01;100.00
34243;BME280;20504;43.214;27.920;2023-06-19T16:53:56;101142.72;;;28.48;100.00
34243;BME280;20504;43.214;27.920;2023-06-19T16:56:27;101122.78;;;28.54;100.00
34243;BME280;20504;43.214;27.920;2023-06-19T16:59:01;101081.78;;;28.34;100.00
34243;BME280;20504;43.214;27.920;2023-06-19T17:04:07;101077.34;;;28.26;100.00
34243;BME280;20504;43.214;27.920;2023-06-19T17:06:35;101045.09;;;28.43;100.00
34243;BME280;20504;43.214;27.920;2023-06-19T17:09:02;100933.25;;;27.95;100.00
34243;BME280;20504;43.214;27.920;2023-06-19T17:11:50;100906.06;;;28.15;100.00
34243;BME280;20504;43.214;27.920;2023-06-19T17:14:24;100750.59;;;27.82;100.00
34243;BME280;20504;43.214;27.920;2023-06-19T17:16:59;100507.63;;;27.45;100.00
34243;BME280;20504;43.214;27.920;2023-06-19T17:19:57;100552.91;;;27.99;100.00
34243;BME280;20504;43.214;27.920;2023-06-19T17:26:14;100459.03;;;27.82;100.00
34243;BME280;20504;43.214;27.920;2023-06-19T17:33:58;100385.91;;;27.59;100.00
34243;BME280;20504;43.214;27.920;2023-06-19T17:45:08;100149.38;;;27.18;100.00
34243;BME280;20504;43.214;27.920;2023-06-19T17:59:16;99778.13;;;26.69;100.00
34243;BME280;20504;43.214;27.920;2023-06-19T18:01:43;99861.47;;;27.20;100.00
34243;BME280;20504;43.214;27.920;2023-06-19T18:04:12;99727.97;;;26.65;100.00
34243;BME280;20504;43.214;27.920;2023-06-19T18:06:38;99668.78;;;26.42;100.00
34243;BME280;20504;43.214;27.920;2023-06-19T18:09:05;99789.00;;;26.69;100.00
34243;BME280;20504;43.214;27.920;2023-06-19T18:12:00;99862.91;;;27.23;100.00